13TE weather

Varisco Airport
Bryan, Texas, United States

Public forecast

Using degrees Fahrenheit for public forecast. Weather courtesy of forecast.io.

Closest aviation weather report (METAR) to Varisco Airport

Closest report is Easterwood Field, 9.9 nm (18.3 km) ESE. Retrieved 2020/08/06 11:53 UTC (42 minutes ago):

KCLL 061153Z AUTO 13004KT 10SM CLR 23/22 A2999 RMK AO2 SLP150 T02330222 10272 20233 53006

Closest aviation forecast (TAF) to Varisco Airport

Closest forecast is Easterwood Field, 9.9 nm (18.3 km) ESE. Retrieved 2020/08/06 12:33 UTC (2 minutes ago):

TAF KCLL 061130Z 0612/0712 17004KT P6SM FEW150 FM061500 18009KT P6SM FEW035 FM070000 17007KT P6SM SKC FM070600 18004KT P6SM SKC